Time;durP1;ratioP1;P1;durP2;ratioP2;P2;SDS_P1;SDS_P2;PMS_P1;PMS_P2;Temp;Humidity;BMP_temperature;BMP_pressure;BME280_temperature;BME280_humidity;BME280_pressure;Samples;Min_cycle;Max_cycle;Signal;HPM_P1;HPM_P2
2022/07/26 00:01:50;;;;;;;3.95;1.13;;;;;;;;;;5121563;28;20031;-73
2022/07/26 00:04:16;;;;;;;4.03;1.25;;;;;;;;;;5121122;28;20250;-73
2022/07/26 00:06:41;;;;;;;2.08;1.10;;;;;;;;;;5114533;28;20090;-73
2022/07/26 00:09:07;;;;;;;2.65;1.10;;;;;;;;;;5120634;28;20015;-73
2022/07/26 00:11:32;;;;;;;2.45;1.20;;;;;;;;;;5121017;28;20081;-72
2022/07/26 00:13:59;;;;;;;3.53;1.30;;;;;;;;;;5124736;28;20028;-73
2022/07/26 00:16:24;;;;;;;3.85;1.20;;;;;;;;;;5125424;28;20057;-73
2022/07/26 00:18:50;;;;;;;3.03;1.23;;;;;;;;;;5118523;28;20020;-72
2022/07/26 00:21:15;;;;;;;3.85;1.20;;;;;;;;;;5125200;28;20024;-73
2022/07/26 00:23:41;;;;;;;2.38;1.23;;;;;;;;;;5124782;28;20054;-73
2022/07/26 00:26:06;;;;;;;3.35;1.30;;;;;;;;;;5122320;28;20016;-73
2022/07/26 00:28:31;;;;;;;5.72;1.45;;;;;;;;;;5121079;28;20101;-73
2022/07/26 00:30:57;;;;;;;4.22;1.40;;;;;;;;;;5125285;28;20077;-73
2022/07/26 00:33:22;;;;;;;4.35;1.30;;;;;;;;;;5106801;28;20023;-72
2022/07/26 00:35:47;;;;;;;6.15;1.30;;;;;;;;;;5124673;28;20026;-73
2022/07/26 00:38:13;;;;;;;2.72;1.13;;;;;;;;;;5096654;28;20310;-73
2022/07/26 00:40:38;;;;;;;4.65;1.40;;;;;;;;;;5124649;28;20241;-73
2022/07/26 00:43:03;;;;;;;4.28;1.33;;;;;;;;;;5124636;28;20032;-73
2022/07/26 00:45:29;;;;;;;4.70;1.27;;;;;;;;;;5124576;28;20024;-73
2022/07/26 00:47:54;;;;;;;6.40;1.40;;;;;;;;;;5125011;28;20020;-73
2022/07/26 00:50:20;;;;;;;4.70;1.25;;;;;;;;;;5117549;28;20063;-73
2022/07/26 00:52:48;;;;;;;2.83;1.10;;;;;;;;;;5124573;28;20082;-73
2022/07/26 00:55:14;;;;;;;3.90;1.20;;;;;;;;;;5124621;28;20036;-73
2022/07/26 00:57:40;;;;;;;3.85;1.30;;;;;;;;;;5124144;28;20027;-73
2022/07/26 01:00:09;;;;;;;3.38;1.20;;;;;;;;;;5124540;28;20020;-73
2022/07/26 01:02:35;;;;;;;4.00;1.70;;;;;;;;;;5124370;28;20023;-72
2022/07/26 01:05:00;;;;;;;4.10;1.40;;;;;;;;;;5100663;28;20023;-73
2022/07/26 01:07:27;;;;;;;4.28;1.23;;;;;;;;;;5122894;28;20061;-74
2022/07/26 01:09:52;;;;;;;4.75;1.40;;;;;;;;;;5116120;28;20024;-73
2022/07/26 01:12:18;;;;;;;3.90;1.30;;;;;;;;;;5124262;28;20215;-73
2022/07/26 01:14:44;;;;;;;3.78;1.20;;;;;;;;;;5123898;28;20212;-73
2022/07/26 01:17:11;;;;;;;4.13;1.40;;;;;;;;;;5124275;28;20114;-73
2022/07/26 01:19:36;;;;;;;3.78;1.38;;;;;;;;;;5124116;28;20026;-73
2022/07/26 01:22:01;;;;;;;3.55;1.55;;;;;;;;;;5124307;28;20019;-73
2022/07/26 01:24:27;;;;;;;4.78;1.67;;;;;;;;;;5122602;28;20042;-73
2022/07/26 01:26:54;;;;;;;2.58;1.30;;;;;;;;;;5124230;28;20035;-73
2022/07/26 01:29:20;;;;;;;4.82;1.45;;;;;;;;;;5123928;28;20019;-72
2022/07/26 01:31:45;;;;;;;3.55;1.30;;;;;;;;;;5121720;28;20076;-72
2022/07/26 01:34:11;;;;;;;4.28;1.63;;;;;;;;;;5124054;28;20027;-73
2022/07/26 01:36:36;;;;;;;5.65;1.45;;;;;;;;;;5123442;28;20023;-72
2022/07/26 01:39:02;;;;;;;3.20;1.27;;;;;;;;;;5110403;28;20027;-73
2022/07/26 01:41:27;;;;;;;4.97;1.58;;;;;;;;;;5123947;28;20028;-73
2022/07/26 01:43:53;;;;;;;4.88;1.30;;;;;;;;;;5111093;28;20210;-73
2022/07/26 01:46:18;;;;;;;3.70;1.40;;;;;;;;;;5123629;28;20023;-73
2022/07/26 01:48:44;;;;;;;5.80;1.38;;;;;;;;;;5123645;28;20016;-73
2022/07/26 01:51:09;;;;;;;5.47;1.60;;;;;;;;;;5123246;28;20089;-72
2022/07/26 01:53:34;;;;;;;6.68;1.40;;;;;;;;;;5122677;28;20022;-73
2022/07/26 01:56:00;;;;;;;4.53;1.40;;;;;;;;;;5123430;28;20012;-72
2022/07/26 01:58:25;;;;;;;11.45;1.50;;;;;;;;;;5123157;28;20216;-73
2022/07/26 02:00:50;;;;;;;2.85;1.27;;;;;;;;;;5123263;28;20259;-73
2022/07/26 02:03:16;;;;;;;2.83;1.17;;;;;;;;;;5123125;28;20051;-72
2022/07/26 02:05:41;;;;;;;3.95;1.40;;;;;;;;;;5112445;28;20235;-73
2022/07/26 02:08:07;;;;;;;3.75;1.30;;;;;;;;;;5122992;28;20226;-73
2022/07/26 02:13:17;;;;;;;4.35;1.30;;;;;;;;;;5115592;28;20031;-73
2022/07/26 02:15:42;;;;;;;4.30;1.40;;;;;;;;;;5122710;28;20027;-73
2022/07/26 02:18:08;;;;;;;4.40;1.40;;;;;;;;;;5122897;28;20026;-73
2022/07/26 02:20:33;;;;;;;4.18;1.38;;;;;;;;;;5122515;28;20377;-73
2022/07/26 02:23:02;;;;;;;3.95;1.30;;;;;;;;;;5122763;28;20027;-73
2022/07/26 02:25:28;;;;;;;3.30;1.40;;;;;;;;;;5104370;28;20027;-73
2022/07/26 02:27:53;;;;;;;3.25;1.30;;;;;;;;;;5104473;28;20121;-73
2022/07/26 02:30:19;;;;;;;3.78;1.20;;;;;;;;;;5122718;28;20023;-72
2022/07/26 02:32:45;;;;;;;2.35;1.30;;;;;;;;;;5122383;28;20122;-72
2022/07/26 02:35:10;;;;;;;3.72;1.20;;;;;;;;;;5122390;28;20227;-73
2022/07/26 02:37:36;;;;;;;5.22;1.25;;;;;;;;;;5122713;28;20035;-73
2022/07/26 02:40:02;;;;;;;3.92;1.40;;;;;;;;;;5122208;28;20073;-73
2022/07/26 02:42:28;;;;;;;6.10;1.20;;;;;;;;;;5116138;28;20125;-72
2022/07/26 02:44:53;;;;;;;4.05;1.30;;;;;;;;;;5122281;28;20212;-72
2022/07/26 02:47:19;;;;;;;3.90;1.27;;;;;;;;;;5122464;28;20024;-73
2022/07/26 02:49:44;;;;;;;4.43;1.30;;;;;;;;;;5121901;28;20066;-73
2022/07/26 02:52:10;;;;;;;5.65;1.30;;;;;;;;;;5122035;28;20031;-72
2022/07/26 02:54:35;;;;;;;3.83;1.40;;;;;;;;;;5122288;28;20091;-73
2022/07/26 02:57:01;;;;;;;5.20;1.48;;;;;;;;;;5122046;28;20024;-73
2022/07/26 02:59:26;;;;;;;5.93;1.50;;;;;;;;;;5122169;28;20030;-73
2022/07/26 03:01:51;;;;;;;2.70;1.23;;;;;;;;;;5121962;28;20039;-73
2022/07/26 03:04:17;;;;;;;5.63;1.30;;;;;;;;;;5117623;28;20028;-73
2022/07/26 03:06:42;;;;;;;5.03;1.70;;;;;;;;;;5115558;28;20024;-73
2022/07/26 03:09:07;;;;;;;4.70;1.48;;;;;;;;;;5121169;28;20064;-73
2022/07/26 03:11:33;;;;;;;5.80;1.40;;;;;;;;;;5121609;28;20019;-73
2022/07/26 03:13:58;;;;;;;5.65;1.40;;;;;;;;;;5121924;28;20019;-73
2022/07/26 03:16:23;;;;;;;4.68;1.50;;;;;;;;;;5121723;28;20012;-73
2022/07/26 03:18:49;;;;;;;5.88;1.38;;;;;;;;;;5121262;28;20027;-73
2022/07/26 03:21:14;;;;;;;7.07;1.40;;;;;;;;;;5121828;28;20069;-73
2022/07/26 03:23:39;;;;;;;7.15;1.40;;;;;;;;;;5121442;28;20108;-73
2022/07/26 03:26:05;;;;;;;4.40;1.58;;;;;;;;;;5121506;28;20032;-73
2022/07/26 03:28:32;;;;;;;4.03;1.35;;;;;;;;;;5121535;28;20038;-73
2022/07/26 03:30:57;;;;;;;4.65;1.52;;;;;;;;;;5121744;28;20080;-73
2022/07/26 03:33:23;;;;;;;5.93;1.48;;;;;;;;;;5121215;28;20044;-73
2022/07/26 03:35:48;;;;;;;5.25;1.33;;;;;;;;;;5121496;28;20023;-73
2022/07/26 03:38:13;;;;;;;4.60;1.60;;;;;;;;;;5119732;28;20389;-74
2022/07/26 03:40:39;;;;;;;7.97;1.70;;;;;;;;;;5111271;28;20547;-73
2022/07/26 03:43:04;;;;;;;8.43;1.48;;;;;;;;;;5101109;28;20031;-73
2022/07/26 03:45:30;;;;;;;3.95;1.40;;;;;;;;;;5116657;28;20126;-74
2022/07/26 03:47:55;;;;;;;6.13;1.40;;;;;;;;;;5119527;28;20106;-73
2022/07/26 03:50:20;;;;;;;4.85;1.60;;;;;;;;;;5116696;28;20335;-73
2022/07/26 03:52:46;;;;;;;5.47;1.60;;;;;;;;;;5116866;28;20024;-74
2022/07/26 03:57:56;;;;;;;4.95;1.50;;;;;;;;;;5108850;28;20120;-73
2022/07/26 04:00:21;;;;;;;8.07;1.65;;;;;;;;;;5120920;28;20023;-73
2022/07/26 04:02:46;;;;;;;5.93;1.42;;;;;;;;;;5119026;28;20034;-73
2022/07/26 04:05:12;;;;;;;4.55;1.65;;;;;;;;;;5109951;28;20089;-73
2022/07/26 04:07:45;;;;;;;5.85;1.60;;;;;;;;;;5119480;28;20057;-72
2022/07/26 04:10:11;;;;;;;4.65;1.30;;;;;;;;;;5108371;28;20015;-73
2022/07/26 04:12:36;;;;;;;5.60;1.70;;;;;;;;;;5112680;28;20031;-73
2022/07/26 04:15:03;;;;;;;8.77;1.42;;;;;;;;;;5113404;28;20373;-72
2022/07/26 04:17:29;;;;;;;6.30;1.70;;;;;;;;;;5120386;28;20022;-73
2022/07/26 04:19:54;;;;;;;5.78;1.50;;;;;;;;;;5118708;28;20043;-73
2022/07/26 04:22:19;;;;;;;4.82;1.60;;;;;;;;;;5120429;28;20026;-73
2022/07/26 04:24:45;;;;;;;6.18;1.55;;;;;;;;;;5116769;28;20027;-73
2022/07/26 04:27:10;;;;;;;9.63;2.00;;;;;;;;;;5120242;28;20035;-73
2022/07/26 04:29:35;;;;;;;4.55;1.52;;;;;;;;;;5120290;28;20027;-73
2022/07/26 04:32:01;;;;;;;3.88;1.50;;;;;;;;;;5118428;28;20015;-73
2022/07/26 04:34:26;;;;;;;5.15;1.40;;;;;;;;;;5120437;28;20050;-73
2022/07/26 04:36:51;;;;;;;6.72;1.50;;;;;;;;;;5117986;28;20109;-73
2022/07/26 04:39:23;;;;;;;5.68;1.55;;;;;;;;;;5119754;28;20031;-73
2022/07/26 04:41:48;;;;;;;7.80;1.80;;;;;;;;;;5118815;28;20060;-73
2022/07/26 04:44:14;;;;;;;6.55;1.70;;;;;;;;;;5119025;28;20446;-73
2022/07/26 04:46:39;;;;;;;6.85;1.98;;;;;;;;;;5119782;28;20031;-73
2022/07/26 04:49:04;;;;;;;9.48;1.60;;;;;;;;;;5117686;28;20018;-73
2022/07/26 04:51:30;;;;;;;6.70;1.67;;;;;;;;;;5117783;28;20051;-73
2022/07/26 04:53:55;;;;;;;7.93;1.85;;;;;;;;;;5118500;28;20031;-73
2022/07/26 04:56:20;;;;;;;6.45;1.60;;;;;;;;;;5119099;28;20091;-73
2022/07/26 04:58:46;;;;;;;5.93;1.55;;;;;;;;;;5088042;28;20077;-73
2022/07/26 05:01:11;;;;;;;7.05;1.63;;;;;;;;;;5122394;28;20364;-73
2022/07/26 05:03:37;;;;;;;5.47;1.63;;;;;;;;;;5117391;28;20081;-73
2022/07/26 05:06:03;;;;;;;8.70;1.60;;;;;;;;;;5111500;28;20030;-73
2022/07/26 05:08:28;;;;;;;7.22;1.58;;;;;;;;;;5120432;28;20015;-73
2022/07/26 05:10:54;;;;;;;5.28;1.70;;;;;;;;;;5119667;28;20250;-73
2022/07/26 05:13:19;;;;;;;8.60;1.83;;;;;;;;;;5119823;28;20216;-73
2022/07/26 05:15:44;;;;;;;8.95;1.70;;;;;;;;;;5119618;28;20016;-73
2022/07/26 05:18:10;;;;;;;7.35;1.75;;;;;;;;;;5119745;28;20028;-73
2022/07/26 05:20:36;;;;;;;7.63;1.70;;;;;;;;;;5119568;28;20436;-73
2022/07/26 05:23:03;;;;;;;6.15;1.83;;;;;;;;;;5120775;28;20042;-72
2022/07/26 05:25:28;;;;;;;6.25;1.60;;;;;;;;;;5118373;28;20030;-73
2022/07/26 05:27:54;;;;;;;5.25;1.50;;;;;;;;;;5121866;28;20024;-73
2022/07/26 05:30:20;;;;;;;5.43;1.60;;;;;;;;;;5120503;28;20060;-73
2022/07/26 05:32:45;;;;;;;5.53;1.73;;;;;;;;;;5119549;28;20058;-73
2022/07/26 05:35:11;;;;;;;11.05;2.10;;;;;;;;;;5122284;28;20035;-73
2022/07/26 05:37:36;;;;;;;5.80;1.60;;;;;;;;;;5119122;28;20078;-73
2022/07/26 05:40:04;;;;;;;9.20;2.08;;;;;;;;;;5113550;28;20044;-73
2022/07/26 05:42:29;;;;;;;4.30;1.50;;;;;;;;;;5117675;28;20032;-73
2022/07/26 05:44:55;;;;;;;6.88;1.92;;;;;;;;;;5119618;28;20030;-73
2022/07/26 05:47:20;;;;;;;12.50;2.00;;;;;;;;;;5119089;28;20012;-73
2022/07/26 05:49:45;;;;;;;5.22;1.90;;;;;;;;;;5117729;28;20035;-73
2022/07/26 05:52:11;;;;;;;7.93;2.25;;;;;;;;;;5121669;28;20027;-73
2022/07/26 05:54:36;;;;;;;6.05;1.95;;;;;;;;;;5120175;28;20042;-72
2022/07/26 05:57:02;;;;;;;6.00;1.77;;;;;;;;;;5121013;28;20361;-73
2022/07/26 05:59:28;;;;;;;6.60;2.00;;;;;;;;;;5119792;28;20095;-73
2022/07/26 06:01:56;;;;;;;9.05;1.90;;;;;;;;;;5119346;28;20020;-73
2022/07/26 06:04:22;;;;;;;7.95;1.95;;;;;;;;;;5122298;28;20055;-73
2022/07/26 06:06:51;;;;;;;6.35;1.95;;;;;;;;;;5116044;28;20019;-73
2022/07/26 06:09:17;;;;;;;6.75;1.80;;;;;;;;;;5094806;28;20307;-73
2022/07/26 06:11:42;;;;;;;6.00;1.80;;;;;;;;;;5120575;27;20046;-73
2022/07/26 06:14:08;;;;;;;6.32;1.80;;;;;;;;;;5122367;28;20129;-73
2022/07/26 06:16:33;;;;;;;7.53;1.85;;;;;;;;;;5116027;28;20091;-73
2022/07/26 06:18:58;;;;;;;7.75;1.92;;;;;;;;;;5092457;28;20024;-74
2022/07/26 06:21:24;;;;;;;10.55;2.05;;;;;;;;;;5120434;28;20031;-73
2022/07/26 06:23:50;;;;;;;7.28;1.83;;;;;;;;;;5122193;28;20057;-73
2022/07/26 06:26:16;;;;;;;7.10;1.77;;;;;;;;;;5122698;28;20027;-73
2022/07/26 06:28:42;;;;;;;6.25;1.75;;;;;;;;;;5121766;28;20015;-73
2022/07/26 06:31:09;;;;;;;8.25;1.63;;;;;;;;;;5119017;28;20128;-73
2022/07/26 06:33:34;;;;;;;6.35;1.70;;;;;;;;;;5117825;28;20035;-74
2022/07/26 06:36:00;;;;;;;10.10;2.00;;;;;;;;;;5103726;28;20028;-73
2022/07/26 06:38:25;;;;;;;9.25;1.90;;;;;;;;;;5121598;28;20080;-74
2022/07/26 06:40:50;;;;;;;6.05;1.95;;;;;;;;;;5121673;28;20027;-73
2022/07/26 06:43:16;;;;;;;8.65;1.98;;;;;;;;;;5120114;28;20245;-73
2022/07/26 06:45:41;;;;;;;6.90;1.90;;;;;;;;;;5118836;28;20022;-73
2022/07/26 06:48:06;;;;;;;4.97;1.80;;;;;;;;;;5100426;28;20047;-73
2022/07/26 06:50:32;;;;;;;7.85;1.75;;;;;;;;;;5120825;28;20250;-73
2022/07/26 06:52:57;;;;;;;7.90;1.88;;;;;;;;;;5120665;28;20306;-73
2022/07/26 06:55:23;;;;;;;5.85;1.67;;;;;;;;;;5119110;28;20421;-75
2022/07/26 06:57:48;;;;;;;13.25;1.80;;;;;;;;;;5115390;28;20022;-73
2022/07/26 07:00:14;;;;;;;7.18;1.83;;;;;;;;;;5117919;28;20030;-73
2022/07/26 07:02:39;;;;;;;7.90;1.70;;;;;;;;;;5119637;28;20264;-73
2022/07/26 07:05:05;;;;;;;6.97;1.88;;;;;;;;;;5113960;28;20311;-73
2022/07/26 07:07:31;;;;;;;7.47;1.90;;;;;;;;;;5115814;28;20046;-73
2022/07/26 07:09:56;;;;;;;7.93;2.00;;;;;;;;;;5117436;28;20019;-73
2022/07/26 07:12:21;;;;;;;7.75;2.03;;;;;;;;;;5119635;28;20024;-73
2022/07/26 07:14:47;;;;;;;9.18;1.90;;;;;;;;;;5120977;28;20141;-73
2022/07/26 07:17:12;;;;;;;9.02;2.05;;;;;;;;;;5118609;28;20080;-73
2022/07/26 07:19:38;;;;;;;7.70;1.90;;;;;;;;;;5120434;28;20032;-73
2022/07/26 07:22:04;;;;;;;5.45;1.73;;;;;;;;;;5118875;28;20049;-73
2022/07/26 07:24:30;;;;;;;10.32;2.20;;;;;;;;;;5117880;28;20042;-73
2022/07/26 07:26:55;;;;;;;10.75;1.95;;;;;;;;;;5120488;28;20020;-73
2022/07/26 07:29:21;;;;;;;13.02;1.80;;;;;;;;;;5120312;28;20254;-73
2022/07/26 07:31:47;;;;;;;8.15;1.90;;;;;;;;;;5119804;28;20016;-73
2022/07/26 07:34:14;;;;;;;6.38;1.85;;;;;;;;;;5117274;28;20055;-73
2022/07/26 07:36:39;;;;;;;9.05;2.10;;;;;;;;;;5120318;28;20023;-75
2022/07/26 07:39:04;;;;;;;7.45;1.88;;;;;;;;;;5117326;28;20015;-73
2022/07/26 07:41:33;;;;;;;7.45;2.00;;;;;;;;;;5100758;28;20143;-72
2022/07/26 07:43:58;;;;;;;9.57;2.05;;;;;;;;;;5120535;28;20090;-73
2022/07/26 07:46:24;;;;;;;8.57;1.90;;;;;;;;;;5118651;28;20068;-73
2022/07/26 07:48:49;;;;;;;8.43;2.08;;;;;;;;;;5119793;28;20240;-73
2022/07/26 07:51:14;;;;;;;9.35;2.20;;;;;;;;;;5120830;28;20035;-72
2022/07/26 07:53:40;;;;;;;8.18;2.08;;;;;;;;;;5119818;28;20149;-72
2022/07/26 07:56:05;;;;;;;8.93;2.22;;;;;;;;;;5120559;28;20020;-73
2022/07/26 07:58:31;;;;;;;6.63;1.95;;;;;;;;;;5120953;28;20028;-73
2022/07/26 08:00:56;;;;;;;7.80;2.10;;;;;;;;;;5118459;28;20315;-73
2022/07/26 08:03:21;;;;;;;8.20;1.92;;;;;;;;;;5119295;28;20327;-73
2022/07/26 08:05:47;;;;;;;11.10;2.10;;;;;;;;;;5108989;28;20106;-73
2022/07/26 08:08:13;;;;;;;8.07;2.25;;;;;;;;;;5119184;28;20048;-73
2022/07/26 08:10:38;;;;;;;8.70;2.28;;;;;;;;;;5117423;28;20020;-73
2022/07/26 08:13:03;;;;;;;7.15;1.90;;;;;;;;;;5118835;28;20420;-73
2022/07/26 08:15:29;;;;;;;11.02;2.15;;;;;;;;;;5119951;28;20032;-73
2022/07/26 08:17:54;;;;;;;14.18;2.25;;;;;;;;;;5109239;28;20438;-72
2022/07/26 08:20:20;;;;;;;10.05;2.00;;;;;;;;;;5117952;28;20028;-74
2022/07/26 08:22:45;;;;;;;6.93;2.03;;;;;;;;;;5117153;28;20034;-73
2022/07/26 08:25:11;;;;;;;7.72;1.88;;;;;;;;;;5114299;28;20035;-73
2022/07/26 08:27:36;;;;;;;6.75;2.13;;;;;;;;;;5120281;28;20293;-73
2022/07/26 08:30:03;;;;;;;8.52;2.22;;;;;;;;;;5116356;28;20341;-73
2022/07/26 08:32:28;;;;;;;12.18;2.10;;;;;;;;;;5100927;28;20024;-73
2022/07/26 08:34:54;;;;;;;7.10;2.10;;;;;;;;;;5121941;28;20023;-73
2022/07/26 08:37:19;;;;;;;8.13;2.00;;;;;;;;;;5119403;28;20047;-73
2022/07/26 08:39:46;;;;;;;6.90;2.17;;;;;;;;;;5122732;28;20023;-73
2022/07/26 08:42:17;;;;;;;4.90;1.83;;;;;;;;;;5108549;28;20035;-73
2022/07/26 08:44:44;;;;;;;5.20;1.88;;;;;;;;;;5114426;28;20020;-73
2022/07/26 08:47:14;;;;;;;7.30;2.03;;;;;;;;;;5122389;28;20016;-73
2022/07/26 08:49:40;;;;;;;9.85;2.00;;;;;;;;;;5121498;28;20054;-74
2022/07/26 08:52:06;;;;;;;5.20;1.80;;;;;;;;;;5119138;28;20031;-73
2022/07/26 08:54:32;;;;;;;11.07;2.05;;;;;;;;;;5122625;28;20028;-74
2022/07/26 08:56:58;;;;;;;6.97;2.17;;;;;;;;;;5121872;28;20011;-73
2022/07/26 08:59:23;;;;;;;7.90;2.22;;;;;;;;;;5123247;28;20087;-74
2022/07/26 09:01:57;;;;;;;4.72;1.80;;;;;;;;;;5117529;28;20030;-73
2022/07/26 09:04:27;;;;;;;6.10;1.80;;;;;;;;;;5114303;28;20027;-73
2022/07/26 09:07:03;;;;;;;4.53;1.70;;;;;;;;;;5116572;28;20028;-73
2022/07/26 09:09:30;;;;;;;5.03;1.80;;;;;;;;;;5100308;28;20023;-73
2022/07/26 09:11:56;;;;;;;6.03;1.83;;;;;;;;;;5123415;28;20019;-73
2022/07/26 09:14:33;;;;;;;8.35;1.80;;;;;;;;;;5096974;28;20028;-73
2022/07/26 09:16:59;;;;;;;5.57;2.00;;;;;;;;;;5111777;28;20041;-73
2022/07/26 09:19:26;;;;;;;10.02;1.80;;;;;;;;;;5116934;28;20138;-73
2022/07/26 09:21:53;;;;;;;5.88;1.55;;;;;;;;;;5123188;28;20225;-73
2022/07/26 09:24:33;;;;;;;7.75;1.88;;;;;;;;;;5122269;28;20024;-73
2022/07/26 09:27:01;;;;;;;6.85;1.65;;;;;;;;;;5112680;28;20028;-73
2022/07/26 09:29:27;;;;;;;4.78;1.75;;;;;;;;;;5122332;28;20028;-73
2022/07/26 09:32:08;;;;;;;5.68;1.58;;;;;;;;;;5122012;28;20019;-73
2022/07/26 09:34:33;;;;;;;5.30;1.80;;;;;;;;;;5121604;28;20039;-72
2022/07/26 09:36:59;;;;;;;5.80;1.60;;;;;;;;;;5120692;28;20012;-74
2022/07/26 09:39:24;;;;;;;4.70;1.50;;;;;;;;;;5122248;28;20287;-73
2022/07/26 09:41:49;;;;;;;7.85;1.70;;;;;;;;;;5119901;28;20081;-73
2022/07/26 09:44:23;;;;;;;5.72;2.03;;;;;;;;;;5118639;28;20043;-72
2022/07/26 09:46:55;;;;;;;8.75;2.25;;;;;;;;;;5121410;28;20085;-73
2022/07/26 09:49:22;;;;;;;5.25;1.77;;;;;;;;;;5117373;28;20303;-73
2022/07/26 09:51:50;;;;;;;6.28;1.70;;;;;;;;;;5116940;28;20032;-74
2022/07/26 09:54:17;;;;;;;8.82;1.98;;;;;;;;;;5120862;28;20025;-73
2022/07/26 09:56:48;;;;;;;5.57;1.70;;;;;;;;;;5119145;28;20058;-73
2022/07/26 09:59:16;;;;;;;6.13;1.70;;;;;;;;;;5112402;28;20087;-72
2022/07/26 10:01:42;;;;;;;5.72;1.90;;;;;;;;;;5120140;28;20023;-73
2022/07/26 10:04:08;;;;;;;7.63;1.73;;;;;;;;;;5121410;28;20023;-73
2022/07/26 10:06:34;;;;;;;8.70;1.60;;;;;;;;;;5113895;28;20050;-73
2022/07/26 10:09:00;;;;;;;5.68;1.77;;;;;;;;;;5120172;28;20245;-73
2022/07/26 10:11:30;;;;;;;3.75;1.70;;;;;;;;;;5119840;28;20045;-72
2022/07/26 10:13:56;;;;;;;6.43;1.70;;;;;;;;;;5116695;28;20052;-73
2022/07/26 10:16:29;;;;;;;4.53;1.73;;;;;;;;;;5116225;28;20460;-73
2022/07/26 10:18:56;;;;;;;5.45;1.77;;;;;;;;;;5116059;28;20023;-73
2022/07/26 10:21:25;;;;;;;4.82;1.65;;;;;;;;;;5116833;28;20160;-73
2022/07/26 10:23:56;;;;;;;4.13;1.60;;;;;;;;;;5120248;28;20046;-73
2022/07/26 10:26:30;;;;;;;7.05;1.80;;;;;;;;;;5121140;28;20027;-73
2022/07/26 10:29:15;;;;;;;8.27;1.70;;;;;;;;;;5118744;28;20031;-75
2022/07/26 10:31:45;;;;;;;8.43;2.08;;;;;;;;;;5118594;28;20028;-72
2022/07/26 10:34:29;;;;;;;4.35;1.60;;;;;;;;;;5121134;28;20023;-72
2022/07/26 10:37:06;;;;;;;6.00;1.48;;;;;;;;;;5119887;28;20023;-72
2022/07/26 10:39:32;;;;;;;3.80;1.40;;;;;;;;;;5101850;28;20028;-72
2022/07/26 10:42:00;;;;;;;3.83;1.42;;;;;;;;;;5092453;28;20023;-74
2022/07/26 10:44:30;;;;;;;5.13;1.50;;;;;;;;;;5115997;28;20027;-72
2022/07/26 10:47:08;;;;;;;3.58;1.20;;;;;;;;;;5121570;28;20011;-72
2022/07/26 10:49:34;;;;;;;4.60;1.40;;;;;;;;;;5117939;28;20051;-71
2022/07/26 10:52:06;;;;;;;3.80;1.65;;;;;;;;;;5120205;28;20050;-72
2022/07/26 10:54:54;;;;;;;3.28;1.50;;;;;;;;;;5119511;28;20168;-73
2022/07/26 10:57:20;;;;;;;4.10;1.23;;;;;;;;;;5096706;28;20664;-72
2022/07/26 10:59:45;;;;;;;2.83;1.27;;;;;;;;;;5116833;28;20206;-71
2022/07/26 11:02:18;;;;;;;1.92;1.20;;;;;;;;;;5121001;28;20019;-72
2022/07/26 11:04:43;;;;;;;5.07;1.20;;;;;;;;;;5112704;28;20027;-72
2022/07/26 11:07:09;;;;;;;2.28;1.10;;;;;;;;;;5115556;28;20023;-73
2022/07/26 11:09:35;;;;;;;2.97;1.20;;;;;;;;;;5116722;28;20306;-72
2022/07/26 11:12:16;;;;;;;3.65;1.40;;;;;;;;;;5121323;28;20016;-72
2022/07/26 11:14:42;;;;;;;3.58;1.30;;;;;;;;;;5117781;28;20063;-72
2022/07/26 11:17:07;;;;;;;3.90;1.20;;;;;;;;;;5118779;28;20031;-71
2022/07/26 11:19:38;;;;;;;4.30;1.40;;;;;;;;;;5111735;28;20024;-72
2022/07/26 11:22:03;;;;;;;1.92;1.15;;;;;;;;;;5119588;28;20024;-72
2022/07/26 11:24:29;;;;;;;3.05;1.20;;;;;;;;;;5120350;28;20066;-73
2022/07/26 11:26:55;;;;;;;1.92;1.00;;;;;;;;;;5118756;28;20543;-72
2022/07/26 11:29:33;;;;;;;2.33;1.10;;;;;;;;;;5119070;28;20076;-72
2022/07/26 11:31:59;;;;;;;4.95;1.15;;;;;;;;;;5118146;28;20023;-73
2022/07/26 11:34:26;;;;;;;3.13;1.30;;;;;;;;;;5120839;28;20020;-71
2022/07/26 11:36:54;;;;;;;4.65;1.20;;;;;;;;;;5119022;28;20023;-72
2022/07/26 11:39:25;;;;;;;4.55;1.17;;;;;;;;;;5119067;28;20212;-71
2022/07/26 11:42:05;;;;;;;2.67;1.13;;;;;;;;;;5112200;28;20540;-72
2022/07/26 11:44:31;;;;;;;4.35;1.27;;;;;;;;;;5094481;28;20035;-72
2022/07/26 11:46:57;;;;;;;3.67;1.20;;;;;;;;;;5117177;28;20104;-71
2022/07/26 11:49:28;;;;;;;5.78;1.17;;;;;;;;;;5120300;28;20031;-72
2022/07/26 11:51:58;;;;;;;4.05;1.30;;;;;;;;;;5117738;28;20031;-71
2022/07/26 11:54:33;;;;;;;7.72;1.40;;;;;;;;;;5117004;28;20077;-71
2022/07/26 11:57:01;;;;;;;3.73;1.20;;;;;;;;;;5116396;28;20039;-72
2022/07/26 11:59:28;;;;;;;3.80;1.40;;;;;;;;;;5119026;28;20015;-71
2022/07/26 12:01:55;;;;;;;3.55;1.40;;;;;;;;;;5119301;28;20285;-73
2022/07/26 12:04:23;;;;;;;4.68;1.27;;;;;;;;;;5118026;28;20094;-72
2022/07/26 12:06:49;;;;;;;2.88;1.00;;;;;;;;;;5113724;28;20050;-72
2022/07/26 12:09:53;;;;;;;2.70;1.10;;;;;;;;;;5117522;28;20080;-71
2022/07/26 12:12:22;;;;;;;2.95;1.10;;;;;;;;;;5051532;28;20078;-72
2022/07/26 12:14:58;;;;;;;4.28;1.20;;;;;;;;;;5118469;28;20230;-71
2022/07/26 12:17:23;;;;;;;3.28;1.10;;;;;;;;;;5110605;28;20020;-72
2022/07/26 12:19:49;;;;;;;4.38;1.17;;;;;;;;;;5118095;28;20050;-71
2022/07/26 12:22:16;;;;;;;4.97;1.10;;;;;;;;;;5117540;28;20031;-72
2022/07/26 12:24:43;;;;;;;5.38;1.10;;;;;;;;;;5118658;28;20035;-72
2022/07/26 12:27:10;;;;;;;4.22;1.00;;;;;;;;;;5118155;28;20019;-72
2022/07/26 12:29:38;;;;;;;2.30;1.10;;;;;;;;;;5116991;28;20081;-71
2022/07/26 12:32:12;;;;;;;2.33;1.10;;;;;;;;;;5120804;28;20304;-71
2022/07/26 12:34:39;;;;;;;5.45;1.10;;;;;;;;;;5117883;28;20020;-71
2022/07/26 12:37:12;;;;;;;2.50;1.13;;;;;;;;;;5088155;28;20087;-71
2022/07/26 12:39:39;;;;;;;3.50;1.15;;;;;;;;;;5116924;28;20118;-73
2022/07/26 12:42:24;;;;;;;4.60;1.10;;;;;;;;;;5118291;28;20024;-71
2022/07/26 12:44:50;;;;;;;3.50;1.10;;;;;;;;;;5112691;28;20047;-72
2022/07/26 12:47:15;;;;;;;4.60;1.20;;;;;;;;;;5119283;28;20215;-72
2022/07/26 12:49:40;;;;;;;2.90;1.20;;;;;;;;;;5116245;28;20035;-72
2022/07/26 12:52:06;;;;;;;2.60;1.10;;;;;;;;;;5120011;28;20323;-72
2022/07/26 12:54:31;;;;;;;2.67;1.20;;;;;;;;;;5119030;28;20035;-72
2022/07/26 12:56:57;;;;;;;2.13;1.10;;;;;;;;;;5114990;28;20090;-72
2022/07/26 12:59:22;;;;;;;5.10;1.10;;;;;;;;;;5119115;28;20039;-72
2022/07/26 13:01:47;;;;;;;4.97;1.20;;;;;;;;;;5117233;28;20020;-72
2022/07/26 13:04:13;;;;;;;2.90;1.13;;;;;;;;;;5119203;28;20038;-72
2022/07/26 13:06:38;;;;;;;2.00;1.10;;;;;;;;;;5114264;28;20073;-72
2022/07/26 13:09:04;;;;;;;2.65;1.00;;;;;;;;;;5120117;28;20035;-72
2022/07/26 13:11:30;;;;;;;4.15;1.02;;;;;;;;;;5119729;28;20011;-71
2022/07/26 13:13:56;;;;;;;2.72;1.10;;;;;;;;;;5120028;28;20054;-72
2022/07/26 13:16:21;;;;;;;4.03;1.30;;;;;;;;;;5120163;28;20204;-72
2022/07/26 13:18:47;;;;;;;2.67;1.15;;;;;;;;;;5117946;28;20196;-72
2022/07/26 13:21:12;;;;;;;4.90;1.27;;;;;;;;;;5114561;28;20228;-72
2022/07/26 13:23:37;;;;;;;4.75;1.30;;;;;;;;;;5123120;28;20037;-74
2022/07/26 13:26:03;;;;;;;3.88;1.23;;;;;;;;;;5120893;28;20080;-72
2022/07/26 13:28:28;;;;;;;5.32;1.10;;;;;;;;;;5121862;28;20034;-73
2022/07/26 13:30:54;;;;;;;3.75;1.23;;;;;;;;;;5120932;28;20024;-72
2022/07/26 13:33:19;;;;;;;3.42;1.40;;;;;;;;;;5120138;28;20202;-72
2022/07/26 13:35:44;;;;;;;3.22;1.20;;;;;;;;;;5114624;28;20024;-72
2022/07/26 13:38:10;;;;;;;4.20;1.20;;;;;;;;;;5119509;28;20040;-72
2022/07/26 13:40:35;;;;;;;5.60;1.30;;;;;;;;;;5118697;28;20030;-73
2022/07/26 13:43:01;;;;;;;6.53;1.20;;;;;;;;;;5121772;28;20040;-72
2022/07/26 13:45:26;;;;;;;5.65;1.20;;;;;;;;;;5115500;28;20234;-71
2022/07/26 13:47:52;;;;;;;4.20;1.20;;;;;;;;;;5122590;28;20035;-72
2022/07/26 13:50:17;;;;;;;3.65;1.02;;;;;;;;;;5119648;28;20162;-71
2022/07/26 13:52:43;;;;;;;2.00;1.10;;;;;;;;;;5120895;28;20110;-72
2022/07/26 13:55:08;;;;;;;3.17;1.23;;;;;;;;;;5121091;28;20020;-72
2022/07/26 13:57:33;;;;;;;3.63;1.10;;;;;;;;;;5121911;28;20173;-73
2022/07/26 13:59:59;;;;;;;2.25;1.10;;;;;;;;;;5121748;28;20040;-72
2022/07/26 14:02:24;;;;;;;3.75;1.17;;;;;;;;;;5119789;28;20581;-71
2022/07/26 14:04:49;;;;;;;4.10;1.20;;;;;;;;;;5119221;28;20334;-72
2022/07/26 14:07:15;;;;;;;6.60;1.30;;;;;;;;;;5099902;28;20028;-74
2022/07/26 14:09:40;;;;;;;5.82;1.20;;;;;;;;;;5121498;28;20024;-73
2022/07/26 14:12:06;;;;;;;5.15;1.23;;;;;;;;;;5122605;28;20084;-72
2022/07/26 14:14:31;;;;;;;3.17;1.17;;;;;;;;;;5095226;28;20068;-72
2022/07/26 14:16:56;;;;;;;3.85;1.20;;;;;;;;;;5119883;28;20099;-73
2022/07/26 14:19:22;;;;;;;3.17;1.25;;;;;;;;;;5122613;28;20028;-72
2022/07/26 14:21:49;;;;;;;3.95;1.15;;;;;;;;;;5122872;28;20095;-72
2022/07/26 14:24:15;;;;;;;3.42;1.30;;;;;;;;;;5120398;28;20368;-73
2022/07/26 14:26:40;;;;;;;3.08;1.20;;;;;;;;;;5101603;28;20027;-72
2022/07/26 14:29:06;;;;;;;1.98;1.10;;;;;;;;;;5119743;28;20026;-72
2022/07/26 14:31:31;;;;;;;2.85;1.30;;;;;;;;;;5100352;28;20027;-72
2022/07/26 14:33:57;;;;;;;3.55;1.40;;;;;;;;;;5119730;28;20026;-72
2022/07/26 14:36:22;;;;;;;2.63;1.20;;;;;;;;;;5119352;28;20091;-72
2022/07/26 14:38:48;;;;;;;4.25;1.20;;;;;;;;;;5119809;28;20027;-71
2022/07/26 14:41:14;;;;;;;3.58;1.23;;;;;;;;;;5120825;28;20208;-72
2022/07/26 14:43:41;;;;;;;2.40;1.20;;;;;;;;;;5113211;28;20027;-72
2022/07/26 14:46:07;;;;;;;2.08;1.17;;;;;;;;;;5116477;28;20016;-72